Time;durP1;ratioP1;P1;durP2;ratioP2;P2;SDS_P1;SDS_P2;PMS_P1;PMS_P2;Temp;Humidity;BMP_temperature;BMP_pressure;BME280_temperature;BME280_humidity;BME280_pressure;Samples;Min_cycle;Max_cycle;Signal;HPM_P1;HPM_P2
2021/03/13 00:00:14;;;;;;;11.80;0.65;;;7.30;99.90;;;;;;10202255;28;20082;-54
2021/03/13 00:05:38;;;;;;;2.25;0.63;;;7.40;99.90;;;;;;10180848;28;20047;-54
2021/03/13 00:10:59;;;;;;;5.05;0.63;;;7.50;99.90;;;;;;10203818;28;20430;-54
2021/03/13 00:16:20;;;;;;;5.47;0.75;;;7.60;99.90;;;;;;10201399;28;20062;-54
2021/03/13 00:21:41;;;;;;;3.53;0.52;;;7.60;99.90;;;;;;10198993;28;20032;-54
2021/03/13 00:27:02;;;;;;;4.70;0.70;;;7.70;99.90;;;;;;10197185;28;20406;-54
2021/03/13 00:32:23;;;;;;;7.50;1.95;;;7.50;99.90;;;;;;10201415;28;20368;-54
2021/03/13 00:37:45;;;;;;;4.30;0.50;;;7.50;99.90;;;;;;10198252;28;20243;-54
2021/03/13 00:43:08;;;;;;;5.57;1.33;;;7.60;99.90;;;;;;10197394;28;20027;-54
2021/03/13 00:48:28;;;;;;;3.28;0.95;;;7.60;99.90;;;;;;10197627;28;20086;-54
2021/03/13 00:53:50;;;;;;;3.42;0.70;;;7.60;99.90;;;;;;10199799;28;20515;-54
2021/03/13 00:59:11;;;;;;;0.88;0.30;;;7.60;99.90;;;;;;10197788;28;20154;-54
2021/03/13 01:04:31;;;;;;;2.40;1.00;;;7.50;99.90;;;;;;10194077;28;20261;-54
2021/03/13 01:09:52;;;;;;;8.32;2.13;;;7.40;99.90;;;;;;10200230;28;20048;-54
2021/03/13 01:15:19;;;;;;;1.02;0.57;;;7.20;99.90;;;;;;10194906;28;20590;-54
2021/03/13 01:20:41;;;;;;;6.22;0.47;;;7.20;99.90;;;;;;10192820;28;20297;-54
2021/03/13 01:26:02;;;;;;;2.17;0.57;;;7.10;99.90;;;;;;10200357;28;20043;-53
2021/03/13 01:31:23;;;;;;;4.15;1.00;;;7.10;99.90;;;;;;10204918;28;20054;-53
2021/03/13 01:36:45;;;;;;;1.42;0.60;;;7.10;99.90;;;;;;10204639;28;20062;-53
2021/03/13 01:42:07;;;;;;;0.95;0.40;;;7.00;99.90;;;;;;10202626;28;20417;-53
2021/03/13 01:47:29;;;;;;;3.50;0.77;;;7.00;99.90;;;;;;10202041;28;20376;-53
2021/03/13 01:52:50;;;;;;;1.20;0.75;;;6.90;99.90;;;;;;10204531;28;20035;-53
2021/03/13 01:58:11;;;;;;;1.05;0.32;;;6.80;99.90;;;;;;10195248;28;20043;-54
2021/03/13 02:03:32;;;;;;;0.60;0.45;;;6.70;99.90;;;;;;10204054;28;20044;-53
2021/03/13 02:09:29;;;;;;;2.00;1.20;;;6.60;99.90;;;;;;10206484;28;20058;-54
2021/03/13 02:15:07;;;;;;;3.40;0.65;;;6.60;99.90;;;;;;10205048;28;20434;-54
2021/03/13 02:20:41;;;;;;;3.50;0.82;;;6.50;99.90;;;;;;10204164;28;20059;-54
2021/03/13 02:26:41;;;;;;;1.95;0.68;;;6.50;99.90;;;;;;10202373;28;20567;-54
2021/03/13 02:32:06;;;;;;;6.67;1.60;;;6.50;99.90;;;;;;10199423;28;20062;-54
2021/03/13 02:37:30;;;;;;;1.88;0.88;;;6.50;99.90;;;;;;10203112;28;20431;-54
2021/03/13 02:42:55;;;;;;;3.45;1.38;;;6.50;99.90;;;;;;10201666;28;20036;-54
2021/03/13 02:48:17;;;;;;;4.20;1.58;;;6.50;99.90;;;;;;10195171;28;20048;-54
2021/03/13 02:53:39;;;;;;;3.97;1.30;;;6.50;99.90;;;;;;10200429;28;20031;-54
2021/03/13 02:59:01;;;;;;;2.83;1.45;;;6.50;99.90;;;;;;10197151;28;20135;-54
2021/03/13 03:04:23;;;;;;;5.05;1.70;;;6.40;99.90;;;;;;10203166;28;20050;-54
2021/03/13 03:09:45;;;;;;;3.85;1.23;;;6.40;99.90;;;;;;10206032;28;20094;-54
2021/03/13 03:15:07;;;;;;;5.15;1.40;;;6.40;99.90;;;;;;10198266;28;20130;-54
2021/03/13 03:20:30;;;;;;;2.67;1.23;;;6.40;99.90;;;;;;10191883;28;20043;-54
2021/03/13 03:25:55;;;;;;;1.65;0.55;;;6.40;99.90;;;;;;10199091;28;20035;-54
2021/03/13 03:31:16;;;;;;;3.88;1.65;;;6.50;99.90;;;;;;10200838;28;20078;-55
2021/03/13 03:36:37;;;;;;;8.65;1.10;;;6.60;99.90;;;;;;10196892;28;20039;-55
2021/03/13 03:41:59;;;;;;;6.32;1.08;;;6.50;99.90;;;;;;10197926;28;20051;-55
2021/03/13 03:47:21;;;;;;;1.77;0.70;;;6.50;99.90;;;;;;10197178;28;20470;-55
2021/03/13 03:52:51;;;;;;;3.42;1.02;;;6.60;99.90;;;;;;10187562;28;20043;-54
2021/03/13 03:58:19;;;;;;;12.10;1.35;;;6.60;99.90;;;;;;10203179;28;20048;-55
2021/03/13 04:03:53;;;;;;;5.82;1.10;;;6.70;99.90;;;;;;10198253;28;20067;-55
2021/03/13 04:09:17;;;;;;;2.80;0.70;;;6.70;99.90;;;;;;10195526;28;20337;-55
2021/03/13 04:14:39;;;;;;;4.70;0.60;;;6.80;99.90;;;;;;10201359;28;20046;-56
2021/03/13 04:20:00;;;;;;;1.40;0.95;;;6.80;99.90;;;;;;10190820;28;20048;-55
2021/03/13 04:25:22;;;;;;;1.80;0.88;;;6.90;99.90;;;;;;10201418;28;20088;-55
2021/03/13 04:30:43;;;;;;;4.35;1.13;;;6.90;99.90;;;;;;10196968;28;20094;-55
2021/03/13 04:36:05;;;;;;;3.63;0.68;;;7.00;99.90;;;;;;10197572;28;20653;-55
2021/03/13 04:41:27;;;;;;;4.60;2.47;;;7.00;99.90;;;;;;10194780;28;20122;-55
2021/03/13 04:46:50;;;;;;;1.60;0.70;;;7.10;99.90;;;;;;10200536;28;20487;-54
2021/03/13 04:52:11;;;;;;;1.05;0.47;;;7.30;99.90;;;;;;10191393;28;20051;-54
2021/03/13 04:57:32;;;;;;;1.25;0.38;;;7.30;99.90;;;;;;10201899;28;20059;-55
2021/03/13 05:02:53;;;;;;;0.85;0.28;;;7.40;99.90;;;;;;10200661;28;20123;-54
2021/03/13 05:08:14;;;;;;;0.55;0.20;;;7.50;99.90;;;;;;10195207;28;20571;-54
2021/03/13 05:13:35;;;;;;;2.08;0.63;;;7.50;99.90;;;;;;10204705;28;20619;-54
2021/03/13 05:18:56;;;;;;;2.15;1.52;;;7.40;99.90;;;;;;10203005;28;20064;-54
2021/03/13 05:24:17;;;;;;;0.52;0.25;;;7.40;99.90;;;;;;10202108;28;20032;-55
2021/03/13 05:29:38;;;;;;;3.00;0.52;;;7.60;99.90;;;;;;10190749;28;20051;-55
2021/03/13 05:34:59;;;;;;;2.38;0.50;;;7.60;99.90;;;;;;10201287;28;20039;-54
2021/03/13 05:40:20;;;;;;;2.97;0.68;;;7.70;99.90;;;;;;10180893;28;20051;-53
2021/03/13 05:45:42;;;;;;;1.63;0.15;;;7.70;99.90;;;;;;10205658;28;20054;-54
2021/03/13 05:51:04;;;;;;;0.50;0.17;;;7.70;99.90;;;;;;10204634;28;20043;-54
2021/03/13 05:56:27;;;;;;;0.20;0.10;;;7.60;99.90;;;;;;10204523;28;20692;-54
2021/03/13 06:01:48;;;;;;;3.95;1.65;;;7.50;99.90;;;;;;10205265;28;20058;-54
2021/03/13 06:07:19;;;;;;;0.50;0.10;;;7.50;99.90;;;;;;10197243;28;20043;-54
2021/03/13 06:12:41;;;;;;;1.33;0.45;;;7.60;99.90;;;;;;10200817;28;20043;-54
2021/03/13 06:18:03;;;;;;;1.42;0.65;;;7.60;99.90;;;;;;10199553;28;20488;-55
2021/03/13 06:23:32;;;;;;;1.17;0.30;;;7.60;99.90;;;;;;10207212;28;20563;-54
2021/03/13 06:28:55;;;;;;;25.35;2.72;;;7.60;99.90;;;;;;10208477;28;20095;-54
2021/03/13 06:34:25;;;;;;;3.33;0.98;;;7.60;99.90;;;;;;10193486;28;20930;-54
2021/03/13 06:39:47;;;;;;;2.53;0.40;;;7.60;99.90;;;;;;10207154;28;20131;-54
2021/03/13 06:45:08;;;;;;;1.55;0.60;;;7.60;99.90;;;;;;10197486;28;22165;-55
2021/03/13 06:50:31;;;;;;;3.15;0.77;;;7.60;99.90;;;;;;10201078;28;20062;-54
2021/03/13 06:56:15;;;;;;;1.23;0.30;;;7.50;99.90;;;;;;10200500;28;20454;-54
2021/03/13 07:01:38;;;;;;;5.13;0.43;;;7.60;99.90;;;;;;10209181;28;20055;-54
2021/03/13 07:06:59;;;;;;;5.80;0.35;;;7.60;99.90;;;;;;10201814;28;20042;-54
2021/03/13 07:12:41;;;;;;;9.60;2.13;;;7.60;99.90;;;;;;10195507;28;20044;-54
2021/03/13 07:18:02;;;;;;;6.68;0.50;;;7.70;99.90;;;;;;10198330;28;20462;-54
2021/03/13 07:23:23;;;;;;;5.05;0.73;;;7.70;99.90;;;;;;10200857;28;20050;-54
2021/03/13 07:28:44;;;;;;;17.55;2.88;;;7.70;99.90;;;;;;10199269;28;20047;-55
2021/03/13 07:34:10;;;;;;;9.38;0.90;;;7.70;99.90;;;;;;10199621;28;20031;-54
2021/03/13 07:39:37;;;;;;;3.80;0.32;;;7.70;99.90;;;;;;10196628;28;20511;-54
2021/03/13 07:44:59;;;;;;;5.43;1.42;;;7.70;99.90;;;;;;10197492;28;20044;-54
2021/03/13 07:50:20;;;;;;;1.98;0.85;;;7.80;99.90;;;;;;10203515;28;20040;-54
2021/03/13 07:55:42;;;;;;;6.82;0.60;;;8.00;99.90;;;;;;10198962;28;20059;-54
2021/03/13 08:01:03;;;;;;;5.70;0.60;;;8.10;99.90;;;;;;10197195;28;21899;-54
2021/03/13 08:06:24;;;;;;;3.58;1.02;;;8.20;99.90;;;;;;10186735;28;20044;-54
2021/03/13 08:11:47;;;;;;;3.92;1.27;;;8.20;99.90;;;;;;10206215;28;20058;-54
2021/03/13 08:17:12;;;;;;;0.55;0.22;;;8.30;99.90;;;;;;10202785;28;20050;-54
2021/03/13 08:22:33;;;;;;;5.28;1.48;;;8.30;99.90;;;;;;10198874;28;20126;-54
2021/03/13 08:27:54;;;;;;;3.08;0.60;;;8.30;99.90;;;;;;10193667;28;20055;-54
2021/03/13 08:33:26;;;;;;;9.65;0.80;;;8.10;99.90;;;;;;10199142;28;20055;-55
2021/03/13 08:38:57;;;;;;;3.92;0.95;;;8.20;99.90;;;;;;10203055;28;20803;-54
2021/03/13 08:44:21;;;;;;;2.83;0.30;;;8.20;99.90;;;;;;10212590;28;20062;-55
2021/03/13 08:49:48;;;;;;;1.67;0.63;;;8.30;99.90;;;;;;10202626;28;20047;-54
2021/03/13 08:55:09;;;;;;;6.72;1.20;;;8.30;99.90;;;;;;10211356;28;20067;-54
2021/03/13 09:00:29;;;;;;;6.38;1.60;;;8.20;99.90;;;;;;10218170;28;20539;-54
2021/03/13 09:05:52;;;;;;;9.73;0.60;;;8.40;99.90;;;;;;10208949;28;20415;-54
2021/03/13 09:11:35;;;;;;;5.72;0.52;;;8.30;99.90;;;;;;10208528;28;20039;-54
2021/03/13 09:16:56;;;;;;;1.13;0.50;;;8.40;99.90;;;;;;10211312;29;20050;-54
2021/03/13 09:22:22;;;;;;;7.97;0.85;;;8.50;99.90;;;;;;10213813;28;20518;-54
2021/03/13 09:27:44;;;;;;;9.57;1.30;;;8.60;99.90;;;;;;10203079;28;20031;-54
2021/03/13 09:33:04;;;;;;;8.35;1.77;;;8.70;99.90;;;;;;10206995;28;20126;-53
2021/03/13 09:38:25;;;;;;;3.85;0.75;;;8.80;99.90;;;;;;10208590;28;20046;-54
2021/03/13 09:43:46;;;;;;;7.40;0.80;;;8.80;99.90;;;;;;10209677;28;20137;-54
2021/03/13 09:49:07;;;;;;;2.67;0.70;;;8.80;99.90;;;;;;10213790;28;20534;-54
2021/03/13 09:54:28;;;;;;;3.40;0.40;;;8.60;99.90;;;;;;10222269;28;20047;-54
2021/03/13 09:59:50;;;;;;;5.93;1.17;;;8.60;99.90;;;;;;10218033;28;20054;-54
2021/03/13 10:05:13;;;;;;;3.33;0.52;;;8.70;99.90;;;;;;10215331;28;20032;-54
2021/03/13 10:10:35;;;;;;;1.55;0.50;;;8.80;99.90;;;;;;10214663;28;20035;-54
2021/03/13 10:15:56;;;;;;;3.42;0.80;;;8.90;99.90;;;;;;10216804;28;20141;-54
2021/03/13 10:21:17;;;;;;;7.97;0.57;;;9.00;99.90;;;;;;10209110;28;20040;-54
2021/03/13 10:26:38;;;;;;;7.70;1.30;;;9.00;99.90;;;;;;10205718;28;20095;-54
2021/03/13 10:32:03;;;;;;;10.00;0.85;;;9.00;99.90;;;;;;10186913;28;20047;-54
2021/03/13 10:37:35;;;;;;;12.48;1.08;;;9.00;99.90;;;;;;10196070;28;20050;-54
2021/03/13 10:43:31;;;;;;;3.28;0.57;;;8.80;99.90;;;;;;10199031;28;20349;-54
2021/03/13 10:48:56;;;;;;;8.80;0.50;;;8.90;99.90;;;;;;10210468;28;20136;-54
2021/03/13 10:54:31;;;;;;;7.88;0.30;;;8.90;99.90;;;;;;10213124;28;20044;-54
2021/03/13 10:59:51;;;;;;;3.30;1.35;;;9.00;99.90;;;;;;10209893;28;20044;-54
2021/03/13 11:05:13;;;;;;;0.32;0.15;;;9.00;99.90;;;;;;10194226;28;20281;-55
2021/03/13 11:10:34;;;;;;;3.90;0.20;;;9.00;99.90;;;;;;10205372;29;20043;-54
2021/03/13 11:15:55;;;;;;;1.55;0.90;;;9.00;99.90;;;;;;10213371;29;20065;-54
2021/03/13 11:21:16;;;;;;;6.97;0.52;;;8.90;99.90;;;;;;10212132;28;20577;-53
2021/03/13 11:26:37;;;;;;;5.13;0.40;;;8.90;99.90;;;;;;10212846;28;20050;-53
2021/03/13 11:31:58;;;;;;;1.67;0.60;;;8.90;99.90;;;;;;10209913;28;20051;-53
2021/03/13 11:37:19;;;;;;;2.85;0.80;;;8.80;99.90;;;;;;10202816;29;20131;-53
2021/03/13 11:42:40;;;;;;;4.55;0.40;;;9.10;99.90;;;;;;10231581;29;20027;-54
2021/03/13 11:48:01;;;;;;;2.80;1.20;;;9.90;99.90;;;;;;10232616;28;20042;-54
2021/03/13 11:53:22;;;;;;;0.85;0.22;;;9.70;99.90;;;;;;10234971;29;20599;-54
2021/03/13 11:58:43;;;;;;;0.85;0.40;;;9.70;99.90;;;;;;10237955;29;20039;-54
2021/03/13 12:04:04;;;;;;;4.82;0.60;;;9.90;99.90;;;;;;10212637;28;20050;-54
2021/03/13 12:09:25;;;;;;;3.13;0.25;;;10.10;99.90;;;;;;10237221;29;20035;-54
2021/03/13 12:14:46;;;;;;;0.35;0.10;;;10.20;99.90;;;;;;10234277;29;20058;-54
2021/03/13 12:20:09;;;;;;;3.35;0.30;;;9.30;99.90;;;;;;10231867;29;20126;-54
2021/03/13 12:25:30;;;;;;;8.10;0.47;;;8.60;99.90;;;;;;10236334;29;20035;-54
2021/03/13 12:30:51;;;;;;;0.95;0.22;;;8.70;99.90;;;;;;10198875;29;20032;-54
2021/03/13 12:36:12;;;;;;;0.93;0.28;;;9.00;99.90;;;;;;10235451;29;20043;-54
2021/03/13 12:41:33;;;;;;;5.10;1.00;;;9.60;99.90;;;;;;10217376;29;20476;-53
2021/03/13 12:46:54;;;;;;;2.85;1.58;;;9.10;99.90;;;;;;10235803;28;20420;-54
2021/03/13 12:52:15;;;;;;;4.03;0.40;;;8.80;99.90;;;;;;10235729;29;20384;-54
2021/03/13 12:57:36;;;;;;;2.65;0.50;;;8.20;99.90;;;;;;10236400;29;20043;-54
2021/03/13 13:02:57;;;;;;;2.88;0.70;;;7.80;99.90;;;;;;10236232;29;20101;-54
2021/03/13 13:08:18;;;;;;;3.05;0.38;;;7.90;99.90;;;;;;10229065;29;20491;-54
2021/03/13 13:13:39;;;;;;;3.00;0.95;;;8.10;99.90;;;;;;10230049;29;20031;-54
2021/03/13 13:19:00;;;;;;;1.63;0.85;;;8.20;99.90;;;;;;10234153;29;20032;-54
2021/03/13 13:24:21;;;;;;;2.15;0.52;;;8.40;99.90;;;;;;10236025;28;20043;-54
2021/03/13 13:29:42;;;;;;;3.55;0.40;;;8.50;99.90;;;;;;10243243;29;20063;-53
2021/03/13 13:35:03;;;;;;;5.38;0.25;;;8.60;99.90;;;;;;10242680;29;20035;-54
2021/03/13 13:40:25;;;;;;;1.30;0.65;;;8.80;99.90;;;;;;10208643;29;20323;-54
2021/03/13 13:45:47;;;;;;;4.57;0.90;;;8.80;99.90;;;;;;10242166;28;20383;-54
2021/03/13 13:51:08;;;;;;;1.42;0.22;;;8.80;99.90;;;;;;10239045;29;20410;-53
2021/03/13 13:56:29;;;;;;;1.73;0.43;;;8.60;99.90;;;;;;10236229;29;20159;-54
2021/03/13 14:01:50;;;;;;;1.55;1.02;;;8.50;99.90;;;;;;10241549;29;20050;-54
2021/03/13 14:07:11;;;;;;;2.92;0.20;;;7.80;99.90;;;;;;10237138;29;20033;-54
2021/03/13 14:12:32;;;;;;;3.70;0.30;;;7.70;99.90;;;;;;10220340;28;20038;-54
2021/03/13 14:17:53;;;;;;;0.43;0.30;;;8.00;99.90;;;;;;10236471;29;20035;-54
2021/03/13 14:23:14;;;;;;;4.15;0.82;;;7.90;99.90;;;;;;10241061;29;20476;-55
2021/03/13 14:28:35;;;;;;;2.90;1.33;;;7.80;99.90;;;;;;10241063;29;20042;-54
2021/03/13 14:33:56;;;;;;;4.95;0.43;;;7.60;99.90;;;;;;10241244;29;20038;-54
2021/03/13 14:39:17;;;;;;;1.20;0.32;;;7.50;99.90;;;;;;10215161;28;20034;-54
2021/03/13 14:44:38;;;;;;;9.20;0.93;;;8.00;99.90;;;;;;10202242;29;20096;-54
2021/03/13 14:49:59;;;;;;;2.38;0.47;;;8.20;99.90;;;;;;10239949;29;20036;-54
2021/03/13 14:55:20;;;;;;;0.93;0.25;;;8.40;99.90;;;;;;10238471;29;20047;-55
2021/03/13 15:00:41;;;;;;;0.65;0.20;;;8.40;99.90;;;;;;10240344;29;20046;-54
2021/03/13 15:06:03;;;;;;;0.57;0.30;;;8.60;99.90;;;;;;10239127;29;20031;-54
2021/03/13 15:11:25;;;;;;;3.45;0.40;;;8.40;99.90;;;;;;10224010;29;20491;-54
2021/03/13 15:16:46;;;;;;;1.20;0.52;;;8.40;99.90;;;;;;10238303;29;20027;-54
2021/03/13 15:22:08;;;;;;;1.10;0.50;;;8.30;99.90;;;;;;10232651;29;20028;-54
2021/03/13 15:27:29;;;;;;;2.22;0.68;;;8.10;99.90;;;;;;10213271;29;20456;-54
2021/03/13 15:32:51;;;;;;;4.70;0.22;;;8.10;99.90;;;;;;10236641;29;20102;-55
2021/03/13 15:38:12;;;;;;;1.25;0.50;;;8.00;99.90;;;;;;10227135;29;20450;-53
2021/03/13 15:43:35;;;;;;;0.28;0.10;;;6.70;99.90;;;;;;10238775;29;20042;-54
2021/03/13 15:48:57;;;;;;;0.90;0.20;;;5.70;99.90;;;;;;10237229;28;20513;-54
2021/03/13 15:54:18;;;;;;;0.85;0.20;;;5.20;99.90;;;;;;10238244;29;20042;-54
2021/03/13 15:59:39;;;;;;;1.02;0.17;;;4.90;99.90;;;;;;10199550;29;20044;-54
2021/03/13 16:04:59;;;;;;;1.20;0.90;;;4.80;99.90;;;;;;10235556;29;20050;-54
2021/03/13 16:10:21;;;;;;;4.15;2.30;;;5.00;99.90;;;;;;10234959;29;20449;-54
2021/03/13 16:15:42;;;;;;;1.65;0.55;;;5.20;99.90;;;;;;10199112;29;20040;-54
2021/03/13 16:21:03;;;;;;;3.78;0.68;;;5.40;99.90;;;;;;10213726;29;20196;-54
2021/03/13 16:26:25;;;;;;;3.50;0.38;;;5.50;99.90;;;;;;10237309;29;20529;-54
2021/03/13 16:31:46;;;;;;;0.88;0.57;;;5.60;99.90;;;;;;10237732;29;20098;-54
2021/03/13 16:37:07;;;;;;;3.17;0.43;;;5.60;99.90;;;;;;10236685;29;20038;-54
2021/03/13 16:42:28;;;;;;;0.70;0.35;;;5.70;99.90;;;;;;10225624;29;20410;-54
2021/03/13 16:47:50;;;;;;;1.52;0.47;;;5.70;99.90;;;;;;10234849;28;20127;-54
2021/03/13 16:53:17;;;;;;;2.83;0.30;;;5.60;99.90;;;;;;10236008;29;20435;-54
2021/03/13 16:58:38;;;;;;;2.53;0.30;;;5.60;99.90;;;;;;10237315;28;20043;-54
2021/03/13 17:03:59;;;;;;;4.35;1.17;;;5.80;99.90;;;;;;10243596;29;20042;-54
2021/03/13 17:09:21;;;;;;;1.02;0.50;;;6.20;99.90;;;;;;10236753;28;20545;-54
2021/03/13 17:14:42;;;;;;;1.35;0.40;;;6.40;99.90;;;;;;10239803;28;20061;-53
2021/03/13 17:20:04;;;;;;;3.70;0.50;;;6.10;99.90;;;;;;10225682;29;20046;-53
2021/03/13 17:25:25;;;;;;;3.67;1.23;;;5.80;99.90;;;;;;10204608;29;20131;-53
2021/03/13 17:30:46;;;;;;;3.10;1.00;;;5.70;99.90;;;;;;10242393;29;20834;-53
2021/03/13 17:36:08;;;;;;;1.55;0.73;;;5.90;99.90;;;;;;10228693;29;20380;-53
2021/03/13 17:41:29;;;;;;;0.80;0.40;;;5.90;99.90;;;;;;10215518;29;20505;-53
2021/03/13 17:46:50;;;;;;;3.15;1.00;;;6.00;99.90;;;;;;10241391;28;20042;-53
2021/03/13 17:52:11;;;;;;;4.07;1.25;;;5.90;99.90;;;;;;10242734;29;20118;-53
2021/03/13 17:57:31;;;;;;;2.17;0.60;;;5.80;99.90;;;;;;10241012;29;20361;-53
2021/03/13 18:02:52;;;;;;;1.40;0.63;;;6.00;99.90;;;;;;10241796;29;20086;-53
2021/03/13 18:08:13;;;;;;;0.20;0.10;;;6.10;99.90;;;;;;10220784;29;20059;-54
2021/03/13 18:13:34;;;;;;;4.35;0.45;;;6.00;99.90;;;;;;10230241;28;20055;-53
2021/03/13 18:18:55;;;;;;;2.67;0.70;;;5.90;99.90;;;;;;10225865;29;20061;-53
2021/03/13 18:24:18;;;;;;;1.85;0.80;;;5.80;99.90;;;;;;10241544;29;20043;-54
2021/03/13 18:29:39;;;;;;;1.48;0.32;;;5.70;99.90;;;;;;10228838;28;20114;-54
2021/03/13 18:35:00;;;;;;;2.28;0.40;;;5.70;99.90;;;;;;10240645;29;20039;-54
2021/03/13 18:40:22;;;;;;;0.52;0.10;;;5.70;99.90;;;;;;10229598;29;20031;-54
2021/03/13 18:45:43;;;;;;;1.15;0.52;;;5.60;99.90;;;;;;10240986;28;20031;-54
2021/03/13 18:51:05;;;;;;;7.55;2.15;;;5.60;99.90;;;;;;10239589;29;20031;-54
2021/03/13 18:56:26;;;;;;;0.82;0.50;;;5.70;99.90;;;;;;10239203;29;20138;-54
2021/03/13 19:01:47;;;;;;;8.20;2.92;;;5.60;99.90;;;;;;10240303;29;20535;-54
2021/03/13 19:07:08;;;;;;;5.40;1.05;;;5.60;99.90;;;;;;10239508;29;20110;-54
2021/03/13 19:12:29;;;;;;;1.20;0.40;;;5.70;99.90;;;;;;10239538;29;20040;-54
2021/03/13 19:17:49;;;;;;;1.50;0.40;;;5.50;99.90;;;;;;10228281;29;20035;-54
2021/03/13 19:23:10;;;;;;;8.25;1.92;;;5.50;99.90;;;;;;10230278;28;20557;-54
2021/03/13 19:28:31;;;;;;;4.28;1.17;;;5.50;99.90;;;;;;10198803;29;20399;-54
2021/03/13 19:33:52;;;;;;;3.95;0.40;;;5.40;99.90;;;;;;10225511;29;20094;-54
2021/03/13 19:39:13;;;;;;;0.73;0.25;;;5.40;99.90;;;;;;10229644;29;20130;-54
2021/03/13 19:44:35;;;;;;;7.75;0.82;;;5.50;99.90;;;;;;10232555;29;20071;-54
2021/03/13 19:49:56;;;;;;;0.60;0.57;;;5.50;99.90;;;;;;10234075;29;20125;-54
2021/03/13 19:55:17;;;;;;;1.02;0.40;;;5.50;99.90;;;;;;10218986;29;20027;-54
2021/03/13 20:00:38;;;;;;;10.00;0.50;;;5.50;99.90;;;;;;10199884;29;20063;-54
2021/03/13 20:05:59;;;;;;;1.92;0.47;;;5.40;99.90;;;;;;10238502;29;20039;-54
2021/03/13 20:11:20;;;;;;;3.25;1.40;;;5.40;99.90;;;;;;10235248;29;20035;-54
2021/03/13 20:16:42;;;;;;;1.75;0.50;;;5.50;99.90;;;;;;10207842;29;20024;-54
2021/03/13 20:22:03;;;;;;;1.15;0.52;;;5.60;99.90;;;;;;10227664;29;20043;-53
2021/03/13 20:27:24;;;;;;;15.98;5.18;;;5.60;99.90;;;;;;10236139;29;20027;-54
2021/03/13 20:32:47;;;;;;;4.65;1.73;;;5.70;99.90;;;;;;10235649;29;20036;-53
2021/03/13 20:38:08;;;;;;;1.48;0.57;;;5.60;99.90;;;;;;10236760;29;20122;-53
2021/03/13 20:43:29;;;;;;;1.20;0.35;;;5.60;99.90;;;;;;10236811;29;20058;-53
2021/03/13 20:48:50;;;;;;;7.95;0.90;;;5.70;99.90;;;;;;10236622;28;20070;-54
2021/03/13 20:54:11;;;;;;;0.40;0.20;;;5.80;99.90;;;;;;10236410;29;20456;-54
2021/03/13 20:59:32;;;;;;;3.40;0.57;;;5.80;99.90;;;;;;10236991;29;20400;-54
2021/03/13 21:04:53;;;;;;;0.85;0.25;;;5.90;99.90;;;;;;10236624;29;20716;-53
2021/03/13 21:10:14;;;;;;;1.25;0.20;;;5.90;99.90;;;;;;10236377;29;20039;-53
2021/03/13 21:15:35;;;;;;;0.28;0.15;;;6.00;99.90;;;;;;10236788;29;20037;-54
2021/03/13 21:20:56;;;;;;;2.30;0.40;;;6.10;99.90;;;;;;10219121;29;20066;-54
2021/03/13 21:26:17;;;;;;;1.73;0.40;;;6.10;99.90;;;;;;10221919;29;20028;-54
2021/03/13 21:31:38;;;;;;;1.17;0.40;;;6.10;99.90;;;;;;10221527;29;20094;-54
2021/03/13 21:36:59;;;;;;;2.60;0.80;;;6.10;99.90;;;;;;10236128;29;20034;-54
2021/03/13 21:42:20;;;;;;;1.92;0.50;;;6.10;99.90;;;;;;10221675;29;20046;-53
2021/03/13 21:47:41;;;;;;;1.75;0.60;;;6.00;99.90;;;;;;10236667;28;20410;-54
2021/03/13 21:53:02;;;;;;;2.13;0.57;;;5.90;99.90;;;;;;10242748;29;20122;-53
2021/03/13 21:58:23;;;;;;;1.80;1.10;;;5.80;99.90;;;;;;10242207;29;20053;-53
2021/03/13 22:03:44;;;;;;;2.08;0.40;;;5.80;99.90;;;;;;10203906;29;20476;-53
2021/03/13 22:09:05;;;;;;;3.45;0.90;;;5.80;99.90;;;;;;10241289;29;20067;-54
2021/03/13 22:14:26;;;;;;;2.53;0.60;;;5.80;99.90;;;;;;10240975;29;20043;-54
2021/03/13 22:19:47;;;;;;;2.92;0.95;;;5.80;99.90;;;;;;10241535;29;20050;-53
2021/03/13 22:25:09;;;;;;;2.67;1.27;;;5.70;99.90;;;;;;10212247;29;20391;-54
2021/03/13 22:30:30;;;;;;;2.03;0.70;;;5.80;99.90;;;;;;10220817;29;20055;-53
2021/03/13 22:35:51;;;;;;;3.03;0.55;;;5.90;99.90;;;;;;10241706;29;20494;-54
2021/03/13 22:41:12;;;;;;;3.17;0.55;;;5.90;99.90;;;;;;10199048;29;20392;-54
2021/03/13 22:46:33;;;;;;;2.03;0.50;;;6.00;99.90;;;;;;10240416;28;20027;-54
2021/03/13 22:51:54;;;;;;;1.02;0.25;;;6.00;99.90;;;;;;10200304;29;20135;-53
2021/03/13 22:57:15;;;;;;;6.20;0.88;;;6.10;99.90;;;;;;10238929;28;20043;-54
2021/03/13 23:02:36;;;;;;;1.70;0.90;;;6.10;99.90;;;;;;10225545;29;20034;-54
2021/03/13 23:07:59;;;;;;;0.32;0.13;;;6.10;99.90;;;;;;10199755;29;20032;-54
2021/03/13 23:13:21;;;;;;;5.40;1.00;;;6.00;99.90;;;;;;10201447;29;20050;-54
2021/03/13 23:18:42;;;;;;;0.55;0.20;;;6.10;99.90;;;;;;10227708;29;20053;-53
2021/03/13 23:24:03;;;;;;;6.45;1.05;;;6.10;99.90;;;;;;10239907;29;20471;-54
2021/03/13 23:29:24;;;;;;;7.55;0.52;;;6.00;99.90;;;;;;10233335;29;20101;-54
2021/03/13 23:34:45;;;;;;;1.23;0.43;;;6.00;99.90;;;;;;10230148;29;20039;-54
2021/03/13 23:40:10;;;;;;;2.63;1.30;;;6.10;99.90;;;;;;10233983;29;20040;-54
2021/03/13 23:45:32;;;;;;;4.13;0.50;;;6.00;99.90;;;;;;10220596;29;20135;-53
2021/03/13 23:50:55;;;;;;;4.07;1.45;;;6.00;99.90;;;;;;10238447;29;20054;-53
2021/03/13 23:56:16;;;;;;;3.97;0.60;;;6.10;99.90;;;;;;10237851;29;20082;-53
